sensor_id;sensor_type;location;lat;lon;timestamp;P1;durP1;ratioP1;P2;durP2;ratioP2
4885;SDS011;2457;51.788;6.136;2023-07-13T00:01:53;8.90;;;1.60;;
4885;SDS011;2457;51.788;6.136;2023-07-13T00:04:21;5.60;;;1.40;;
4885;SDS011;2457;51.788;6.136;2023-07-13T00:06:49;6.70;;;1.20;;
4885;SDS011;2457;51.788;6.136;2023-07-13T00:09:16;6.87;;;1.30;;
4885;SDS011;2457;51.788;6.136;2023-07-13T00:11:45;6.83;;;1.73;;
4885;SDS011;2457;51.788;6.136;2023-07-13T00:14:13;7.00;;;1.37;;
4885;SDS011;2457;51.788;6.136;2023-07-13T00:16:42;5.80;;;1.70;;
4885;SDS011;2457;51.788;6.136;2023-07-13T00:19:12;5.63;;;1.57;;
4885;SDS011;2457;51.788;6.136;2023-07-13T00:21:40;9.57;;;2.10;;
4885;SDS011;2457;51.788;6.136;2023-07-13T00:24:08;6.30;;;1.40;;
4885;SDS011;2457;51.788;6.136;2023-07-13T00:26:36;10.53;;;1.40;;
4885;SDS011;2457;51.788;6.136;2023-07-13T00:29:03;5.93;;;1.50;;
4885;SDS011;2457;51.788;6.136;2023-07-13T00:31:32;4.73;;;1.33;;
4885;SDS011;2457;51.788;6.136;2023-07-13T00:33:59;7.10;;;1.40;;
4885;SDS011;2457;51.788;6.136;2023-07-13T00:36:27;9.60;;;1.80;;
4885;SDS011;2457;51.788;6.136;2023-07-13T00:38:54;9.00;;;1.43;;
4885;SDS011;2457;51.788;6.136;2023-07-13T00:41:21;5.00;;;1.10;;
4885;SDS011;2457;51.788;6.136;2023-07-13T00:43:49;6.20;;;1.80;;
4885;SDS011;2457;51.788;6.136;2023-07-13T00:46:18;5.20;;;1.53;;
4885;SDS011;2457;51.788;6.136;2023-07-13T00:48:46;10.50;;;1.97;;
4885;SDS011;2457;51.788;6.136;2023-07-13T00:51:16;4.50;;;1.37;;
4885;SDS011;2457;51.788;6.136;2023-07-13T00:53:43;4.60;;;1.70;;
4885;SDS011;2457;51.788;6.136;2023-07-13T00:56:10;5.73;;;1.67;;
4885;SDS011;2457;51.788;6.136;2023-07-13T00:58:38;7.37;;;1.93;;
4885;SDS011;2457;51.788;6.136;2023-07-13T01:01:06;6.97;;;1.77;;
4885;SDS011;2457;51.788;6.136;2023-07-13T01:03:33;6.53;;;1.50;;
4885;SDS011;2457;51.788;6.136;2023-07-13T01:06:01;8.00;;;1.77;;
4885;SDS011;2457;51.788;6.136;2023-07-13T01:08:28;6.77;;;1.90;;
4885;SDS011;2457;51.788;6.136;2023-07-13T01:10:56;10.80;;;1.57;;
4885;SDS011;2457;51.788;6.136;2023-07-13T01:13:24;5.13;;;1.40;;
4885;SDS011;2457;51.788;6.136;2023-07-13T01:15:52;7.07;;;1.63;;
4885;SDS011;2457;51.788;6.136;2023-07-13T01:18:24;6.63;;;2.23;;
4885;SDS011;2457;51.788;6.136;2023-07-13T01:20:53;6.33;;;1.53;;
4885;SDS011;2457;51.788;6.136;2023-07-13T01:23:20;5.50;;;1.87;;
4885;SDS011;2457;51.788;6.136;2023-07-13T01:25:48;7.13;;;1.70;;
4885;SDS011;2457;51.788;6.136;2023-07-13T01:28:15;5.20;;;1.47;;
4885;SDS011;2457;51.788;6.136;2023-07-13T01:30:43;6.80;;;1.60;;
4885;SDS011;2457;51.788;6.136;2023-07-13T01:33:12;6.20;;;1.80;;
4885;SDS011;2457;51.788;6.136;2023-07-13T01:35:40;4.10;;;1.27;;
4885;SDS011;2457;51.788;6.136;2023-07-13T01:38:07;5.83;;;1.63;;
4885;SDS011;2457;51.788;6.136;2023-07-13T01:40:35;8.27;;;2.00;;
4885;SDS011;2457;51.788;6.136;2023-07-13T01:43:03;9.47;;;2.10;;
4885;SDS011;2457;51.788;6.136;2023-07-13T01:45:30;4.80;;;1.80;;
4885;SDS011;2457;51.788;6.136;2023-07-13T01:47:58;5.33;;;1.60;;
4885;SDS011;2457;51.788;6.136;2023-07-13T01:50:25;5.90;;;1.70;;
4885;SDS011;2457;51.788;6.136;2023-07-13T01:52:52;8.20;;;2.00;;
4885;SDS011;2457;51.788;6.136;2023-07-13T01:55:20;7.70;;;2.20;;
4885;SDS011;2457;51.788;6.136;2023-07-13T01:57:48;6.70;;;1.77;;
4885;SDS011;2457;51.788;6.136;2023-07-13T02:00:15;5.60;;;1.70;;
4885;SDS011;2457;51.788;6.136;2023-07-13T02:02:42;5.20;;;1.40;;
4885;SDS011;2457;51.788;6.136;2023-07-13T02:05:10;5.53;;;1.90;;
4885;SDS011;2457;51.788;6.136;2023-07-13T02:07:38;6.27;;;1.77;;
4885;SDS011;2457;51.788;6.136;2023-07-13T02:10:06;6.33;;;1.80;;
4885;SDS011;2457;51.788;6.136;2023-07-13T02:12:34;6.13;;;1.70;;
4885;SDS011;2457;51.788;6.136;2023-07-13T02:15:02;6.90;;;1.83;;
4885;SDS011;2457;51.788;6.136;2023-07-13T02:17:29;5.83;;;1.57;;
4885;SDS011;2457;51.788;6.136;2023-07-13T02:19:56;7.83;;;1.97;;
4885;SDS011;2457;51.788;6.136;2023-07-13T02:22:24;7.43;;;1.80;;
4885;SDS011;2457;51.788;6.136;2023-07-13T02:24:51;9.40;;;1.63;;
4885;SDS011;2457;51.788;6.136;2023-07-13T02:27:18;7.30;;;1.77;;
4885;SDS011;2457;51.788;6.136;2023-07-13T02:29:46;5.60;;;1.83;;
4885;SDS011;2457;51.788;6.136;2023-07-13T02:32:13;5.30;;;1.70;;
4885;SDS011;2457;51.788;6.136;2023-07-13T02:34:40;7.57;;;1.90;;
4885;SDS011;2457;51.788;6.136;2023-07-13T02:37:08;7.20;;;1.90;;
4885;SDS011;2457;51.788;6.136;2023-07-13T02:39:36;4.93;;;1.70;;
4885;SDS011;2457;51.788;6.136;2023-07-13T02:42:03;5.23;;;1.40;;
4885;SDS011;2457;51.788;6.136;2023-07-13T02:44:30;8.43;;;1.80;;
4885;SDS011;2457;51.788;6.136;2023-07-13T02:46:58;8.57;;;1.70;;
4885;SDS011;2457;51.788;6.136;2023-07-13T02:49:25;7.00;;;1.30;;
4885;SDS011;2457;51.788;6.136;2023-07-13T02:51:52;10.50;;;1.70;;
4885;SDS011;2457;51.788;6.136;2023-07-13T02:54:20;4.40;;;1.47;;
4885;SDS011;2457;51.788;6.136;2023-07-13T02:56:47;7.03;;;1.93;;
4885;SDS011;2457;51.788;6.136;2023-07-13T02:59:14;6.73;;;1.80;;
4885;SDS011;2457;51.788;6.136;2023-07-13T03:01:41;7.80;;;1.60;;
4885;SDS011;2457;51.788;6.136;2023-07-13T03:04:09;10.50;;;1.97;;
4885;SDS011;2457;51.788;6.136;2023-07-13T03:06:36;6.23;;;1.63;;
4885;SDS011;2457;51.788;6.136;2023-07-13T03:09:04;6.20;;;1.60;;
4885;SDS011;2457;51.788;6.136;2023-07-13T03:11:31;6.90;;;1.83;;
4885;SDS011;2457;51.788;6.136;2023-07-13T03:13:58;5.50;;;1.40;;
4885;SDS011;2457;51.788;6.136;2023-07-13T03:16:26;9.53;;;2.00;;
4885;SDS011;2457;51.788;6.136;2023-07-13T03:18:53;5.50;;;2.07;;
4885;SDS011;2457;51.788;6.136;2023-07-13T03:21:20;7.13;;;1.30;;
4885;SDS011;2457;51.788;6.136;2023-07-13T03:23:48;6.30;;;1.50;;
4885;SDS011;2457;51.788;6.136;2023-07-13T03:26:16;11.10;;;1.80;;
4885;SDS011;2457;51.788;6.136;2023-07-13T03:28:44;5.73;;;1.70;;
4885;SDS011;2457;51.788;6.136;2023-07-13T03:31:17;7.00;;;1.50;;
4885;SDS011;2457;51.788;6.136;2023-07-13T03:33:41;6.20;;;1.93;;
4885;SDS011;2457;51.788;6.136;2023-07-13T03:36:09;11.13;;;1.67;;
4885;SDS011;2457;51.788;6.136;2023-07-13T03:38:36;7.03;;;1.70;;
4885;SDS011;2457;51.788;6.136;2023-07-13T03:41:04;8.43;;;1.90;;
4885;SDS011;2457;51.788;6.136;2023-07-13T03:43:31;7.23;;;1.50;;
4885;SDS011;2457;51.788;6.136;2023-07-13T03:45:59;5.63;;;1.63;;
4885;SDS011;2457;51.788;6.136;2023-07-13T03:48:29;6.97;;;2.10;;
4885;SDS011;2457;51.788;6.136;2023-07-13T03:50:57;5.53;;;1.47;;
4885;SDS011;2457;51.788;6.136;2023-07-13T03:53:24;6.00;;;1.60;;
4885;SDS011;2457;51.788;6.136;2023-07-13T03:55:52;5.20;;;1.30;;
4885;SDS011;2457;51.788;6.136;2023-07-13T04:00:54;6.73;;;1.87;;
4885;SDS011;2457;51.788;6.136;2023-07-13T04:03:21;7.07;;;1.57;;
4885;SDS011;2457;51.788;6.136;2023-07-13T04:05:49;7.30;;;1.70;;
4885;SDS011;2457;51.788;6.136;2023-07-13T04:08:16;9.47;;;1.80;;
4885;SDS011;2457;51.788;6.136;2023-07-13T04:10:43;6.40;;;1.53;;
4885;SDS011;2457;51.788;6.136;2023-07-13T04:13:11;8.67;;;1.50;;
4885;SDS011;2457;51.788;6.136;2023-07-13T04:15:38;7.00;;;1.80;;
4885;SDS011;2457;51.788;6.136;2023-07-13T04:18:06;6.50;;;1.80;;
4885;SDS011;2457;51.788;6.136;2023-07-13T04:20:33;5.07;;;1.60;;
4885;SDS011;2457;51.788;6.136;2023-07-13T04:23:01;15.60;;;2.87;;
4885;SDS011;2457;51.788;6.136;2023-07-13T04:25:28;8.03;;;1.80;;
4885;SDS011;2457;51.788;6.136;2023-07-13T04:27:55;7.00;;;1.63;;
4885;SDS011;2457;51.788;6.136;2023-07-13T04:30:24;6.37;;;1.50;;
4885;SDS011;2457;51.788;6.136;2023-07-13T04:32:52;6.73;;;1.40;;
4885;SDS011;2457;51.788;6.136;2023-07-13T04:35:20;10.30;;;1.70;;
4885;SDS011;2457;51.788;6.136;2023-07-13T04:37:48;4.90;;;1.93;;
4885;SDS011;2457;51.788;6.136;2023-07-13T04:40:17;4.20;;;1.50;;
4885;SDS011;2457;51.788;6.136;2023-07-13T04:42:45;6.40;;;1.80;;
4885;SDS011;2457;51.788;6.136;2023-07-13T04:45:17;5.27;;;1.80;;
4885;SDS011;2457;51.788;6.136;2023-07-13T04:47:41;6.00;;;2.00;;
4885;SDS011;2457;51.788;6.136;2023-07-13T04:50:08;7.07;;;2.03;;
4885;SDS011;2457;51.788;6.136;2023-07-13T04:52:39;5.73;;;1.40;;
4885;SDS011;2457;51.788;6.136;2023-07-13T04:55:06;10.40;;;2.10;;
4885;SDS011;2457;51.788;6.136;2023-07-13T04:57:33;7.40;;;2.13;;
4885;SDS011;2457;51.788;6.136;2023-07-13T05:00:01;7.73;;;1.97;;
4885;SDS011;2457;51.788;6.136;2023-07-13T05:02:30;4.70;;;1.60;;
4885;SDS011;2457;51.788;6.136;2023-07-13T05:04:58;9.90;;;2.33;;
4885;SDS011;2457;51.788;6.136;2023-07-13T05:07:25;7.80;;;1.93;;
4885;SDS011;2457;51.788;6.136;2023-07-13T05:09:53;10.87;;;2.10;;
4885;SDS011;2457;51.788;6.136;2023-07-13T05:12:20;7.17;;;1.93;;
4885;SDS011;2457;51.788;6.136;2023-07-13T05:14:49;5.57;;;1.80;;
4885;SDS011;2457;51.788;6.136;2023-07-13T05:17:16;7.10;;;1.90;;
4885;SDS011;2457;51.788;6.136;2023-07-13T05:19:44;9.37;;;2.50;;
4885;SDS011;2457;51.788;6.136;2023-07-13T05:22:11;6.40;;;2.20;;
4885;SDS011;2457;51.788;6.136;2023-07-13T05:24:38;6.60;;;2.00;;
4885;SDS011;2457;51.788;6.136;2023-07-13T05:27:06;9.20;;;2.07;;
4885;SDS011;2457;51.788;6.136;2023-07-13T05:29:33;6.50;;;2.20;;
4885;SDS011;2457;51.788;6.136;2023-07-13T05:32:00;11.97;;;2.60;;
4885;SDS011;2457;51.788;6.136;2023-07-13T05:34:28;8.13;;;2.43;;
4885;SDS011;2457;51.788;6.136;2023-07-13T05:36:55;7.87;;;2.90;;
4885;SDS011;2457;51.788;6.136;2023-07-13T05:39:23;7.67;;;2.97;;
4885;SDS011;2457;51.788;6.136;2023-07-13T05:41:50;10.30;;;2.50;;
4885;SDS011;2457;51.788;6.136;2023-07-13T05:44:18;9.50;;;3.00;;
4885;SDS011;2457;51.788;6.136;2023-07-13T05:46:46;7.87;;;2.97;;
4885;SDS011;2457;51.788;6.136;2023-07-13T05:49:14;11.87;;;3.03;;
4885;SDS011;2457;51.788;6.136;2023-07-13T05:51:42;11.30;;;3.50;;
4885;SDS011;2457;51.788;6.136;2023-07-13T05:54:09;15.93;;;4.00;;
4885;SDS011;2457;51.788;6.136;2023-07-13T05:56:36;16.50;;;3.43;;
4885;SDS011;2457;51.788;6.136;2023-07-13T05:59:03;13.90;;;3.83;;
4885;SDS011;2457;51.788;6.136;2023-07-13T06:01:31;9.47;;;3.50;;
4885;SDS011;2457;51.788;6.136;2023-07-13T06:03:58;9.93;;;3.60;;
4885;SDS011;2457;51.788;6.136;2023-07-13T06:06:25;11.50;;;3.73;;
4885;SDS011;2457;51.788;6.136;2023-07-13T06:08:53;19.27;;;4.97;;
4885;SDS011;2457;51.788;6.136;2023-07-13T06:11:21;14.13;;;4.63;;
4885;SDS011;2457;51.788;6.136;2023-07-13T06:13:49;17.60;;;4.30;;
4885;SDS011;2457;51.788;6.136;2023-07-13T06:16:16;12.70;;;5.20;;
4885;SDS011;2457;51.788;6.136;2023-07-13T06:18:44;13.47;;;5.17;;
4885;SDS011;2457;51.788;6.136;2023-07-13T06:21:17;16.47;;;5.50;;
4885;SDS011;2457;51.788;6.136;2023-07-13T06:23:40;11.13;;;4.50;;
4885;SDS011;2457;51.788;6.136;2023-07-13T06:26:08;15.27;;;5.50;;
4885;SDS011;2457;51.788;6.136;2023-07-13T06:28:35;18.33;;;5.87;;
4885;SDS011;2457;51.788;6.136;2023-07-13T06:31:05;15.33;;;5.43;;
4885;SDS011;2457;51.788;6.136;2023-07-13T06:33:34;12.67;;;5.37;;
4885;SDS011;2457;51.788;6.136;2023-07-13T06:36:02;14.50;;;4.90;;
4885;SDS011;2457;51.788;6.136;2023-07-13T06:38:32;19.03;;;5.90;;
4885;SDS011;2457;51.788;6.136;2023-07-13T06:40:58;17.33;;;5.13;;
4885;SDS011;2457;51.788;6.136;2023-07-13T06:43:25;19.37;;;6.30;;
4885;SDS011;2457;51.788;6.136;2023-07-13T06:45:54;18.00;;;6.27;;
4885;SDS011;2457;51.788;6.136;2023-07-13T06:48:22;14.30;;;5.97;;
4885;SDS011;2457;51.788;6.136;2023-07-13T06:50:50;16.50;;;6.30;;
4885;SDS011;2457;51.788;6.136;2023-07-13T06:53:18;15.57;;;6.70;;
4885;SDS011;2457;51.788;6.136;2023-07-13T06:55:45;20.27;;;5.43;;
4885;SDS011;2457;51.788;6.136;2023-07-13T06:58:14;16.50;;;6.10;;
4885;SDS011;2457;51.788;6.136;2023-07-13T07:00:41;17.77;;;5.73;;
4885;SDS011;2457;51.788;6.136;2023-07-13T07:03:09;14.80;;;6.20;;
4885;SDS011;2457;51.788;6.136;2023-07-13T07:05:36;14.40;;;6.00;;
4885;SDS011;2457;51.788;6.136;2023-07-13T07:08:03;24.50;;;5.80;;
4885;SDS011;2457;51.788;6.136;2023-07-13T07:10:31;14.73;;;6.40;;
4885;SDS011;2457;51.788;6.136;2023-07-13T07:12:58;12.57;;;5.40;;
4885;SDS011;2457;51.788;6.136;2023-07-13T07:15:26;15.37;;;5.97;;
4885;SDS011;2457;51.788;6.136;2023-07-13T07:17:53;17.60;;;5.53;;
4885;SDS011;2457;51.788;6.136;2023-07-13T07:20:21;18.33;;;6.60;;
4885;SDS011;2457;51.788;6.136;2023-07-13T07:22:48;18.10;;;6.37;;
4885;SDS011;2457;51.788;6.136;2023-07-13T07:25:15;15.70;;;5.77;;
4885;SDS011;2457;51.788;6.136;2023-07-13T07:27:43;14.27;;;6.13;;
4885;SDS011;2457;51.788;6.136;2023-07-13T07:30:12;20.63;;;5.80;;
4885;SDS011;2457;51.788;6.136;2023-07-13T07:32:39;14.43;;;5.97;;
4885;SDS011;2457;51.788;6.136;2023-07-13T07:35:07;17.70;;;5.17;;
4885;SDS011;2457;51.788;6.136;2023-07-13T07:37:35;18.03;;;5.93;;
4885;SDS011;2457;51.788;6.136;2023-07-13T07:40:02;17.13;;;5.63;;
4885;SDS011;2457;51.788;6.136;2023-07-13T07:42:30;18.67;;;5.77;;
4885;SDS011;2457;51.788;6.136;2023-07-13T07:44:57;16.40;;;5.03;;
4885;SDS011;2457;51.788;6.136;2023-07-13T07:47:24;15.60;;;6.07;;
4885;SDS011;2457;51.788;6.136;2023-07-13T07:49:52;11.50;;;5.40;;
4885;SDS011;2457;51.788;6.136;2023-07-13T07:52:19;14.93;;;4.30;;
4885;SDS011;2457;51.788;6.136;2023-07-13T07:54:47;14.07;;;5.43;;
4885;SDS011;2457;51.788;6.136;2023-07-13T07:57:14;15.63;;;5.93;;
4885;SDS011;2457;51.788;6.136;2023-07-13T07:59:41;13.93;;;5.80;;
4885;SDS011;2457;51.788;6.136;2023-07-13T08:02:09;17.30;;;5.80;;
4885;SDS011;2457;51.788;6.136;2023-07-13T08:04:37;16.60;;;6.07;;
4885;SDS011;2457;51.788;6.136;2023-07-13T08:07:05;13.57;;;5.93;;
4885;SDS011;2457;51.788;6.136;2023-07-13T08:09:32;13.10;;;5.00;;
4885;SDS011;2457;51.788;6.136;2023-07-13T08:12:00;18.03;;;6.23;;
4885;SDS011;2457;51.788;6.136;2023-07-13T08:14:27;15.90;;;5.20;;
4885;SDS011;2457;51.788;6.136;2023-07-13T08:16:54;15.17;;;5.37;;
4885;SDS011;2457;51.788;6.136;2023-07-13T08:19:21;15.27;;;5.60;;
4885;SDS011;2457;51.788;6.136;2023-07-13T08:21:49;15.50;;;5.40;;
4885;SDS011;2457;51.788;6.136;2023-07-13T08:24:16;17.77;;;5.87;;
4885;SDS011;2457;51.788;6.136;2023-07-13T08:26:45;10.63;;;4.30;;
4885;SDS011;2457;51.788;6.136;2023-07-13T08:29:15;13.50;;;5.50;;
4885;SDS011;2457;51.788;6.136;2023-07-13T08:31:42;14.53;;;5.33;;
4885;SDS011;2457;51.788;6.136;2023-07-13T08:34:10;13.57;;;5.43;;
4885;SDS011;2457;51.788;6.136;2023-07-13T08:36:37;12.10;;;5.03;;
4885;SDS011;2457;51.788;6.136;2023-07-13T08:39:04;15.60;;;4.47;;
4885;SDS011;2457;51.788;6.136;2023-07-13T08:41:32;14.37;;;5.13;;
4885;SDS011;2457;51.788;6.136;2023-07-13T08:44:00;11.87;;;5.23;;
4885;SDS011;2457;51.788;6.136;2023-07-13T08:46:31;22.40;;;6.07;;
4885;SDS011;2457;51.788;6.136;2023-07-13T08:49:04;14.90;;;5.60;;
4885;SDS011;2457;51.788;6.136;2023-07-13T08:51:38;15.37;;;4.83;;
4885;SDS011;2457;51.788;6.136;2023-07-13T08:54:05;11.50;;;4.63;;
4885;SDS011;2457;51.788;6.136;2023-07-13T08:56:32;12.53;;;5.57;;
4885;SDS011;2457;51.788;6.136;2023-07-13T08:59:05;17.53;;;4.93;;
4885;SDS011;2457;51.788;6.136;2023-07-13T09:04:30;12.63;;;4.57;;
4885;SDS011;2457;51.788;6.136;2023-07-13T09:09:34;13.83;;;4.40;;
4885;SDS011;2457;51.788;6.136;2023-07-13T09:12:19;15.73;;;5.37;;
4885;SDS011;2457;51.788;6.136;2023-07-13T09:14:36;12.90;;;4.10;;
4885;SDS011;2457;51.788;6.136;2023-07-13T09:17:03;13.63;;;4.60;;
4885;SDS011;2457;51.788;6.136;2023-07-13T09:19:31;12.87;;;4.10;;
4885;SDS011;2457;51.788;6.136;2023-07-13T09:22:00;12.33;;;4.60;;
4885;SDS011;2457;51.788;6.136;2023-07-13T09:24:36;9.10;;;3.80;;
4885;SDS011;2457;51.788;6.136;2023-07-13T09:27:12;12.07;;;4.17;;
4885;SDS011;2457;51.788;6.136;2023-07-13T09:29:38;10.73;;;4.53;;
4885;SDS011;2457;51.788;6.136;2023-07-13T09:32:09;16.70;;;3.60;;
4885;SDS011;2457;51.788;6.136;2023-07-13T09:34:36;8.57;;;3.53;;
4885;SDS011;2457;51.788;6.136;2023-07-13T09:37:04;13.20;;;4.60;;
4885;SDS011;2457;51.788;6.136;2023-07-13T09:39:39;13.37;;;4.73;;
4885;SDS011;2457;51.788;6.136;2023-07-13T09:42:06;17.17;;;4.23;;
4885;SDS011;2457;51.788;6.136;2023-07-13T09:44:49;14.87;;;4.17;;
4885;SDS011;2457;51.788;6.136;2023-07-13T09:47:21;16.80;;;3.87;;
4885;SDS011;2457;51.788;6.136;2023-07-13T09:49:45;15.93;;;4.80;;
4885;SDS011;2457;51.788;6.136;2023-07-13T09:52:14;7.77;;;3.40;;
4885;SDS011;2457;51.788;6.136;2023-07-13T09:54:45;6.93;;;3.17;;
4885;SDS011;2457;51.788;6.136;2023-07-13T09:57:16;10.97;;;3.93;;
4885;SDS011;2457;51.788;6.136;2023-07-13T09:59:44;8.63;;;3.60;;
4885;SDS011;2457;51.788;6.136;2023-07-13T10:02:29;12.93;;;3.33;;
4885;SDS011;2457;51.788;6.136;2023-07-13T10:05:19;8.77;;;2.73;;
4885;SDS011;2457;51.788;6.136;2023-07-13T10:07:27;11.80;;;3.23;;
4885;SDS011;2457;51.788;6.136;2023-07-13T10:09:55;9.80;;;2.93;;
4885;SDS011;2457;51.788;6.136;2023-07-13T10:12:23;9.03;;;3.10;;
4885;SDS011;2457;51.788;6.136;2023-07-13T10:14:56;10.70;;;2.97;;
4885;SDS011;2457;51.788;6.136;2023-07-13T10:17:25;8.80;;;3.00;;
4885;SDS011;2457;51.788;6.136;2023-07-13T10:19:50;13.23;;;3.50;;
4885;SDS011;2457;51.788;6.136;2023-07-13T10:23:04;10.83;;;3.00;;
4885;SDS011;2457;51.788;6.136;2023-07-13T10:24:47;9.63;;;2.70;;
4885;SDS011;2457;51.788;6.136;2023-07-13T10:27:27;7.20;;;2.70;;
4885;SDS011;2457;51.788;6.136;2023-07-13T10:29:53;8.00;;;3.30;;
4885;SDS011;2457;51.788;6.136;2023-07-13T10:32:21;10.43;;;3.20;;
4885;SDS011;2457;51.788;6.136;2023-07-13T10:34:50;8.10;;;3.33;;
4885;SDS011;2457;51.788;6.136;2023-07-13T10:37:20;10.70;;;2.80;;
4885;SDS011;2457;51.788;6.136;2023-07-13T10:39:48;7.73;;;3.13;;
4885;SDS011;2457;51.788;6.136;2023-07-13T10:42:18;8.53;;;3.10;;
4885;SDS011;2457;51.788;6.136;2023-07-13T10:44:45;9.20;;;3.23;;
4885;SDS011;2457;51.788;6.136;2023-07-13T10:47:13;9.90;;;3.60;;
4885;SDS011;2457;51.788;6.136;2023-07-13T10:49:41;6.17;;;2.80;;
4885;SDS011;2457;51.788;6.136;2023-07-13T10:52:55;7.93;;;2.80;;
4885;SDS011;2457;51.788;6.136;2023-07-13T10:54:37;6.07;;;2.70;;
4885;SDS011;2457;51.788;6.136;2023-07-13T10:59:36;9.47;;;3.63;;
4885;SDS011;2457;51.788;6.136;2023-07-13T11:02:11;15.20;;;4.90;;
4885;SDS011;2457;51.788;6.136;2023-07-13T11:04:40;10.23;;;4.13;;
4885;SDS011;2457;51.788;6.136;2023-07-13T11:07:20;13.80;;;6.03;;
4885;SDS011;2457;51.788;6.136;2023-07-13T11:09:38;8.50;;;5.00;;
4885;SDS011;2457;51.788;6.136;2023-07-13T11:12:26;14.27;;;5.63;;
4885;SDS011;2457;51.788;6.136;2023-07-13T11:14:44;7.87;;;4.83;;
4885;SDS011;2457;51.788;6.136;2023-07-13T11:20:10;12.00;;;4.97;;
4885;SDS011;2457;51.788;6.136;2023-07-13T11:22:50;17.33;;;5.70;;
4885;SDS011;2457;51.788;6.136;2023-07-13T11:35:57;10.77;;;5.83;;
4885;SDS011;2457;51.788;6.136;2023-07-13T11:38:22;14.93;;;5.57;;
4885;SDS011;2457;51.788;6.136;2023-07-13T11:40:51;12.70;;;6.23;;
4885;SDS011;2457;51.788;6.136;2023-07-13T11:43:19;9.03;;;4.50;;
4885;SDS011;2457;51.788;6.136;2023-07-13T11:45:49;9.70;;;4.30;;
4885;SDS011;2457;51.788;6.136;2023-07-13T11:48:20;6.87;;;3.53;;
4885;SDS011;2457;51.788;6.136;2023-07-13T11:50:51;10.33;;;4.03;;
4885;SDS011;2457;51.788;6.136;2023-07-13T11:53:19;10.00;;;3.40;;
4885;SDS011;2457;51.788;6.136;2023-07-13T11:55:47;5.80;;;2.53;;
4885;SDS011;2457;51.788;6.136;2023-07-13T11:58:14;5.87;;;2.53;;
4885;SDS011;2457;51.788;6.136;2023-07-13T12:00:43;5.60;;;2.60;;
4885;SDS011;2457;51.788;6.136;2023-07-13T12:03:11;6.03;;;2.20;;
4885;SDS011;2457;51.788;6.136;2023-07-13T12:05:53;6.30;;;2.87;;
4885;SDS011;2457;51.788;6.136;2023-07-13T12:08:08;6.20;;;2.40;;
4885;SDS011;2457;51.788;6.136;2023-07-13T12:10:37;5.97;;;2.20;;
4885;SDS011;2457;51.788;6.136;2023-07-13T12:13:05;5.00;;;2.10;;
4885;SDS011;2457;51.788;6.136;2023-07-13T12:18:02;6.27;;;2.20;;
4885;SDS011;2457;51.788;6.136;2023-07-13T12:20:35;5.33;;;2.10;;
4885;SDS011;2457;51.788;6.136;2023-07-13T12:22:59;6.60;;;2.10;;
4885;SDS011;2457;51.788;6.136;2023-07-13T12:25:28;6.67;;;2.20;;
4885;SDS011;2457;51.788;6.136;2023-07-13T12:27:56;5.70;;;1.97;;
4885;SDS011;2457;51.788;6.136;2023-07-13T12:30:25;6.47;;;2.27;;
4885;SDS011;2457;51.788;6.136;2023-07-13T12:35:30;6.87;;;2.37;;
4885;SDS011;2457;51.788;6.136;2023-07-13T12:37:59;5.20;;;2.00;;
4885;SDS011;2457;51.788;6.136;2023-07-13T12:40:29;4.70;;;1.60;;
4885;SDS011;2457;51.788;6.136;2023-07-13T12:42:55;5.73;;;1.90;;
4885;SDS011;2457;51.788;6.136;2023-07-13T12:45:24;5.13;;;1.67;;
4885;SDS011;2457;51.788;6.136;2023-07-13T12:47:56;4.80;;;2.00;;
4885;SDS011;2457;51.788;6.136;2023-07-13T12:50:29;5.50;;;1.73;;
4885;SDS011;2457;51.788;6.136;2023-07-13T12:52:54;4.70;;;1.80;;
4885;SDS011;2457;51.788;6.136;2023-07-13T12:55:23;5.97;;;2.20;;
4885;SDS011;2457;51.788;6.136;2023-07-13T12:57:53;6.33;;;2.00;;
4885;SDS011;2457;51.788;6.136;2023-07-13T13:00:22;5.10;;;1.93;;
4885;SDS011;2457;51.788;6.136;2023-07-13T13:02:52;4.70;;;2.17;;
4885;SDS011;2457;51.788;6.136;2023-07-13T13:05:19;5.20;;;2.00;;
4885;SDS011;2457;51.788;6.136;2023-07-13T13:07:49;5.83;;;2.03;;
4885;SDS011;2457;51.788;6.136;2023-07-13T13:10:17;5.53;;;2.33;;
4885;SDS011;2457;51.788;6.136;2023-07-13T13:12:44;7.00;;;2.30;;
4885;SDS011;2457;51.788;6.136;2023-07-13T13:15:12;9.60;;;3.80;;
4885;SDS011;2457;51.788;6.136;2023-07-13T13:17:39;7.93;;;2.77;;
4885;SDS011;2457;51.788;6.136;2023-07-13T13:20:18;8.87;;;2.50;;
4885;SDS011;2457;51.788;6.136;2023-07-13T13:22:42;5.47;;;2.13;;
4885;SDS011;2457;51.788;6.136;2023-07-13T13:25:12;5.83;;;2.50;;
4885;SDS011;2457;51.788;6.136;2023-07-13T13:27:41;5.30;;;2.40;;
4885;SDS011;2457;51.788;6.136;2023-07-13T13:30:10;5.67;;;2.13;;
4885;SDS011;2457;51.788;6.136;2023-07-13T13:32:39;7.30;;;2.70;;
4885;SDS011;2457;51.788;6.136;2023-07-13T13:35:14;6.40;;;2.73;;
4885;SDS011;2457;51.788;6.136;2023-07-13T13:37:38;7.53;;;2.93;;
4885;SDS011;2457;51.788;6.136;2023-07-13T13:40:15;10.37;;;2.80;;
4885;SDS011;2457;51.788;6.136;2023-07-13T13:42:34;6.80;;;2.67;;
4885;SDS011;2457;51.788;6.136;2023-07-13T13:45:03;8.50;;;2.57;;
4885;SDS011;2457;51.788;6.136;2023-07-13T13:47:31;6.60;;;2.60;;
4885;SDS011;2457;51.788;6.136;2023-07-13T13:49:59;7.13;;;2.87;;
4885;SDS011;2457;51.788;6.136;2023-07-13T13:52:26;7.20;;;2.43;;
4885;SDS011;2457;51.788;6.136;2023-07-13T13:54:54;9.80;;;2.80;;
4885;SDS011;2457;51.788;6.136;2023-07-13T13:57:23;10.60;;;2.70;;
4885;SDS011;2457;51.788;6.136;2023-07-13T13:59:51;8.20;;;3.37;;
4885;SDS011;2457;51.788;6.136;2023-07-13T14:02:22;6.80;;;2.57;;
4885;SDS011;2457;51.788;6.136;2023-07-13T14:04:53;6.97;;;2.93;;
4885;SDS011;2457;51.788;6.136;2023-07-13T14:07:19;7.23;;;3.23;;
4885;SDS011;2457;51.788;6.136;2023-07-13T14:09:47;12.00;;;3.17;;
4885;SDS011;2457;51.788;6.136;2023-07-13T14:12:14;8.50;;;2.47;;
4885;SDS011;2457;51.788;6.136;2023-07-13T14:14:41;7.23;;;2.33;;
4885;SDS011;2457;51.788;6.136;2023-07-13T14:17:13;8.03;;;2.83;;
4885;SDS011;2457;51.788;6.136;2023-07-13T14:19:38;6.10;;;2.97;;
4885;SDS011;2457;51.788;6.136;2023-07-13T14:22:07;7.73;;;2.97;;
4885;SDS011;2457;51.788;6.136;2023-07-13T14:24:34;4.90;;;1.97;;
4885;SDS011;2457;51.788;6.136;2023-07-13T14:27:01;8.60;;;2.57;;
4885;SDS011;2457;51.788;6.136;2023-07-13T14:29:29;8.40;;;2.33;;
4885;SDS011;2457;51.788;6.136;2023-07-13T14:31:58;5.67;;;2.10;;
4885;SDS011;2457;51.788;6.136;2023-07-13T14:34:25;10.60;;;2.57;;
4885;SDS011;2457;51.788;6.136;2023-07-13T14:36:52;8.57;;;2.00;;
4885;SDS011;2457;51.788;6.136;2023-07-13T14:39:23;6.80;;;2.10;;
4885;SDS011;2457;51.788;6.136;2023-07-13T14:41:51;7.10;;;2.70;;
4885;SDS011;2457;51.788;6.136;2023-07-13T14:44:24;6.00;;;2.10;;
4885;SDS011;2457;51.788;6.136;2023-07-13T14:46:51;6.40;;;1.87;;
4885;SDS011;2457;51.788;6.136;2023-07-13T14:49:35;5.63;;;1.70;;
4885;SDS011;2457;51.788;6.136;2023-07-13T14:52:05;5.30;;;1.77;;
4885;SDS011;2457;51.788;6.136;2023-07-13T14:54:31;5.87;;;1.80;;
4885;SDS011;2457;51.788;6.136;2023-07-13T14:56:59;5.10;;;1.83;;
4885;SDS011;2457;51.788;6.136;2023-07-13T14:59:27;6.60;;;1.63;;
4885;SDS011;2457;51.788;6.136;2023-07-13T15:01:54;5.30;;;1.77;;
4885;SDS011;2457;51.788;6.136;2023-07-13T15:04:22;4.73;;;1.67;;
4885;SDS011;2457;51.788;6.136;2023-07-13T15:06:53;6.37;;;1.90;;
4885;SDS011;2457;51.788;6.136;2023-07-13T15:09:20;6.20;;;2.13;;
4885;SDS011;2457;51.788;6.136;2023-07-13T15:11:47;4.90;;;1.60;;
4885;SDS011;2457;51.788;6.136;2023-07-13T15:14:15;6.97;;;2.03;;
4885;SDS011;2457;51.788;6.136;2023-07-13T15:16:42;4.80;;;1.70;;
4885;SDS011;2457;51.788;6.136;2023-07-13T15:19:10;4.50;;;1.80;;
4885;SDS011;2457;51.788;6.136;2023-07-13T15:21:37;5.07;;;1.80;;
4885;SDS011;2457;51.788;6.136;2023-07-13T15:24:05;7.77;;;2.03;;
4885;SDS011;2457;51.788;6.136;2023-07-13T15:26:34;8.10;;;1.97;;
4885;SDS011;2457;51.788;6.136;2023-07-13T15:29:01;8.23;;;2.10;;
4885;SDS011;2457;51.788;6.136;2023-07-13T15:31:29;7.03;;;1.77;;
4885;SDS011;2457;51.788;6.136;2023-07-13T15:33:58;5.77;;;2.03;;
4885;SDS011;2457;51.788;6.136;2023-07-13T15:36:25;6.03;;;2.23;;
4885;SDS011;2457;51.788;6.136;2023-07-13T15:38:54;6.27;;;1.63;;
4885;SDS011;2457;51.788;6.136;2023-07-13T15:41:27;7.17;;;2.40;;
4885;SDS011;2457;51.788;6.136;2023-07-13T15:43:51;5.60;;;2.13;;
4885;SDS011;2457;51.788;6.136;2023-07-13T15:46:19;11.50;;;2.23;;